sensor_id;sensor_type;location;lat;lon;timestamp;P1;durP1;ratioP1;P2;durP2;ratioP2
12707;SDS011;6418;50.824;4.718;2023-03-23T00:00:59;9.63;;;5.80;;
12707;SDS011;6418;50.824;4.718;2023-03-23T00:03:27;10.77;;;5.87;;
12707;SDS011;6418;50.824;4.718;2023-03-23T00:05:57;9.80;;;5.60;;
12707;SDS011;6418;50.824;4.718;2023-03-23T00:08:33;13.40;;;6.00;;
12707;SDS011;6418;50.824;4.718;2023-03-23T00:11:03;10.17;;;6.20;;
12707;SDS011;6418;50.824;4.718;2023-03-23T00:13:30;11.03;;;5.77;;
12707;SDS011;6418;50.824;4.718;2023-03-23T00:15:57;10.03;;;5.57;;
12707;SDS011;6418;50.824;4.718;2023-03-23T00:18:25;11.37;;;6.23;;
12707;SDS011;6418;50.824;4.718;2023-03-23T00:20:52;9.90;;;5.73;;
12707;SDS011;6418;50.824;4.718;2023-03-23T00:23:20;11.40;;;5.80;;
12707;SDS011;6418;50.824;4.718;2023-03-23T00:25:50;9.67;;;5.63;;
12707;SDS011;6418;50.824;4.718;2023-03-23T00:28:21;10.17;;;5.90;;
12707;SDS011;6418;50.824;4.718;2023-03-23T00:30:53;11.13;;;5.70;;
12707;SDS011;6418;50.824;4.718;2023-03-23T00:33:22;10.27;;;5.80;;
12707;SDS011;6418;50.824;4.718;2023-03-23T00:35:51;10.10;;;5.60;;
12707;SDS011;6418;50.824;4.718;2023-03-23T00:38:19;10.17;;;5.90;;
12707;SDS011;6418;50.824;4.718;2023-03-23T00:40:46;11.87;;;5.80;;
12707;SDS011;6418;50.824;4.718;2023-03-23T00:43:15;11.03;;;5.70;;
12707;SDS011;6418;50.824;4.718;2023-03-23T00:45:44;11.47;;;5.90;;
12707;SDS011;6418;50.824;4.718;2023-03-23T00:48:17;10.87;;;5.83;;
12707;SDS011;6418;50.824;4.718;2023-03-23T00:50:44;10.93;;;5.90;;
12707;SDS011;6418;50.824;4.718;2023-03-23T00:53:11;11.80;;;6.07;;
12707;SDS011;6418;50.824;4.718;2023-03-23T00:55:39;13.17;;;5.90;;
12707;SDS011;6418;50.824;4.718;2023-03-23T00:58:07;12.80;;;5.87;;
12707;SDS011;6418;50.824;4.718;2023-03-23T01:00:35;10.90;;;5.90;;
12707;SDS011;6418;50.824;4.718;2023-03-23T01:03:03;12.00;;;5.93;;
12707;SDS011;6418;50.824;4.718;2023-03-23T01:05:33;10.43;;;5.70;;
12707;SDS011;6418;50.824;4.718;2023-03-23T01:08:01;11.17;;;5.77;;
12707;SDS011;6418;50.824;4.718;2023-03-23T01:10:28;11.33;;;5.87;;
12707;SDS011;6418;50.824;4.718;2023-03-23T01:12:58;11.47;;;5.67;;
12707;SDS011;6418;50.824;4.718;2023-03-23T01:15:25;12.23;;;5.90;;
12707;SDS011;6418;50.824;4.718;2023-03-23T01:17:53;9.70;;;5.50;;
12707;SDS011;6418;50.824;4.718;2023-03-23T01:20:21;11.00;;;5.50;;
12707;SDS011;6418;50.824;4.718;2023-03-23T01:22:48;9.77;;;5.63;;
12707;SDS011;6418;50.824;4.718;2023-03-23T01:25:15;10.17;;;5.50;;
12707;SDS011;6418;50.824;4.718;2023-03-23T01:27:42;10.17;;;5.53;;
12707;SDS011;6418;50.824;4.718;2023-03-23T01:30:10;11.17;;;5.70;;
12707;SDS011;6418;50.824;4.718;2023-03-23T01:32:38;11.83;;;5.90;;
12707;SDS011;6418;50.824;4.718;2023-03-23T01:35:07;9.17;;;5.37;;
12707;SDS011;6418;50.824;4.718;2023-03-23T01:37:34;10.90;;;5.67;;
12707;SDS011;6418;50.824;4.718;2023-03-23T01:40:01;10.97;;;5.77;;
12707;SDS011;6418;50.824;4.718;2023-03-23T01:42:30;10.87;;;5.63;;
12707;SDS011;6418;50.824;4.718;2023-03-23T01:47:48;10.13;;;5.67;;
12707;SDS011;6418;50.824;4.718;2023-03-23T01:50:19;10.80;;;5.80;;
12707;SDS011;6418;50.824;4.718;2023-03-23T01:52:50;11.43;;;5.90;;
12707;SDS011;6418;50.824;4.718;2023-03-23T01:55:18;11.17;;;5.70;;
12707;SDS011;6418;50.824;4.718;2023-03-23T01:57:46;11.37;;;5.73;;
12707;SDS011;6418;50.824;4.718;2023-03-23T02:00:14;10.30;;;5.60;;
12707;SDS011;6418;50.824;4.718;2023-03-23T02:02:41;10.10;;;5.53;;
12707;SDS011;6418;50.824;4.718;2023-03-23T02:05:12;8.23;;;5.43;;
12707;SDS011;6418;50.824;4.718;2023-03-23T02:07:46;10.63;;;5.80;;
12707;SDS011;6418;50.824;4.718;2023-03-23T02:10:14;10.10;;;5.60;;
12707;SDS011;6418;50.824;4.718;2023-03-23T02:12:41;11.27;;;5.70;;
12707;SDS011;6418;50.824;4.718;2023-03-23T02:15:08;10.27;;;5.83;;
12707;SDS011;6418;50.824;4.718;2023-03-23T02:17:37;10.03;;;5.60;;
12707;SDS011;6418;50.824;4.718;2023-03-23T02:20:13;9.40;;;5.57;;
12707;SDS011;6418;50.824;4.718;2023-03-23T02:23:01;11.43;;;5.50;;
12707;SDS011;6418;50.824;4.718;2023-03-23T02:25:48;13.50;;;5.80;;
12707;SDS011;6418;50.824;4.718;2023-03-23T02:28:37;9.40;;;5.60;;
12707;SDS011;6418;50.824;4.718;2023-03-23T02:31:18;10.60;;;5.43;;
12707;SDS011;6418;50.824;4.718;2023-03-23T02:33:57;10.03;;;5.30;;
12707;SDS011;6418;50.824;4.718;2023-03-23T02:36:28;11.57;;;5.30;;
12707;SDS011;6418;50.824;4.718;2023-03-23T02:39:01;9.93;;;5.20;;
12707;SDS011;6418;50.824;4.718;2023-03-23T02:41:36;9.70;;;5.20;;
12707;SDS011;6418;50.824;4.718;2023-03-23T02:44:07;10.43;;;5.30;;
12707;SDS011;6418;50.824;4.718;2023-03-23T02:46:35;11.60;;;5.20;;
12707;SDS011;6418;50.824;4.718;2023-03-23T02:49:05;10.70;;;5.03;;
12707;SDS011;6418;50.824;4.718;2023-03-23T02:51:35;9.03;;;4.87;;
12707;SDS011;6418;50.824;4.718;2023-03-23T02:54:04;11.43;;;5.17;;
12707;SDS011;6418;50.824;4.718;2023-03-23T02:56:33;10.63;;;5.00;;
12707;SDS011;6418;50.824;4.718;2023-03-23T02:59:01;9.70;;;4.80;;
12707;SDS011;6418;50.824;4.718;2023-03-23T03:04:32;10.13;;;5.10;;
12707;SDS011;6418;50.824;4.718;2023-03-23T03:07:09;11.00;;;5.00;;
12707;SDS011;6418;50.824;4.718;2023-03-23T03:10:01;8.30;;;4.70;;
12707;SDS011;6418;50.824;4.718;2023-03-23T03:12:33;7.70;;;4.80;;
12707;SDS011;6418;50.824;4.718;2023-03-23T03:15:09;10.00;;;4.87;;
12707;SDS011;6418;50.824;4.718;2023-03-23T03:17:44;10.20;;;4.60;;
12707;SDS011;6418;50.824;4.718;2023-03-23T03:20:18;7.77;;;4.70;;
12707;SDS011;6418;50.824;4.718;2023-03-23T03:22:48;9.77;;;5.07;;
12707;SDS011;6418;50.824;4.718;2023-03-23T03:25:17;8.20;;;4.90;;
12707;SDS011;6418;50.824;4.718;2023-03-23T03:27:47;10.83;;;4.83;;
12707;SDS011;6418;50.824;4.718;2023-03-23T03:30:17;11.00;;;4.90;;
12707;SDS011;6418;50.824;4.718;2023-03-23T03:32:49;9.13;;;5.00;;
12707;SDS011;6418;50.824;4.718;2023-03-23T03:35:21;11.00;;;5.40;;
12707;SDS011;6418;50.824;4.718;2023-03-23T03:37:49;9.43;;;4.73;;
12707;SDS011;6418;50.824;4.718;2023-03-23T03:40:18;8.77;;;4.63;;
12707;SDS011;6418;50.824;4.718;2023-03-23T03:42:47;10.77;;;4.90;;
12707;SDS011;6418;50.824;4.718;2023-03-23T03:45:15;10.50;;;4.90;;
12707;SDS011;6418;50.824;4.718;2023-03-23T03:47:43;9.97;;;4.97;;
12707;SDS011;6418;50.824;4.718;2023-03-23T03:50:11;10.47;;;5.10;;
12707;SDS011;6418;50.824;4.718;2023-03-23T03:52:39;8.80;;;4.87;;
12707;SDS011;6418;50.824;4.718;2023-03-23T03:55:07;9.90;;;4.90;;
12707;SDS011;6418;50.824;4.718;2023-03-23T03:57:35;8.47;;;4.70;;
12707;SDS011;6418;50.824;4.718;2023-03-23T04:00:03;9.87;;;4.90;;
12707;SDS011;6418;50.824;4.718;2023-03-23T04:02:39;10.50;;;5.10;;
12707;SDS011;6418;50.824;4.718;2023-03-23T04:05:07;11.10;;;5.20;;
12707;SDS011;6418;50.824;4.718;2023-03-23T04:07:35;11.13;;;5.43;;
12707;SDS011;6418;50.824;4.718;2023-03-23T04:10:06;11.63;;;4.87;;
12707;SDS011;6418;50.824;4.718;2023-03-23T04:12:34;8.73;;;4.93;;
12707;SDS011;6418;50.824;4.718;2023-03-23T04:15:02;10.70;;;4.73;;
12707;SDS011;6418;50.824;4.718;2023-03-23T04:17:29;8.73;;;4.87;;
12707;SDS011;6418;50.824;4.718;2023-03-23T04:19:56;13.23;;;4.90;;
12707;SDS011;6418;50.824;4.718;2023-03-23T04:22:24;14.00;;;5.40;;
12707;SDS011;6418;50.824;4.718;2023-03-23T04:24:55;10.73;;;4.70;;
12707;SDS011;6418;50.824;4.718;2023-03-23T04:27:25;12.33;;;4.90;;
12707;SDS011;6418;50.824;4.718;2023-03-23T04:29:53;11.63;;;4.40;;
12707;SDS011;6418;50.824;4.718;2023-03-23T04:32:23;8.07;;;4.30;;
12707;SDS011;6418;50.824;4.718;2023-03-23T04:34:50;12.83;;;4.77;;
12707;SDS011;6418;50.824;4.718;2023-03-23T04:37:17;10.60;;;4.60;;
12707;SDS011;6418;50.824;4.718;2023-03-23T04:39:44;10.67;;;4.23;;
12707;SDS011;6418;50.824;4.718;2023-03-23T04:42:11;13.50;;;4.60;;
12707;SDS011;6418;50.824;4.718;2023-03-23T04:44:41;9.20;;;4.50;;
12707;SDS011;6418;50.824;4.718;2023-03-23T04:47:08;10.03;;;4.30;;
12707;SDS011;6418;50.824;4.718;2023-03-23T04:49:35;9.57;;;4.30;;
12707;SDS011;6418;50.824;4.718;2023-03-23T04:52:03;8.53;;;4.13;;
12707;SDS011;6418;50.824;4.718;2023-03-23T04:54:30;14.33;;;4.30;;
12707;SDS011;6418;50.824;4.718;2023-03-23T04:56:57;10.50;;;4.13;;
12707;SDS011;6418;50.824;4.718;2023-03-23T04:59:24;12.03;;;4.30;;
12707;SDS011;6418;50.824;4.718;2023-03-23T05:01:54;7.83;;;3.87;;
12707;SDS011;6418;50.824;4.718;2023-03-23T05:04:21;11.43;;;3.80;;
12707;SDS011;6418;50.824;4.718;2023-03-23T05:06:50;8.90;;;3.60;;
12707;SDS011;6418;50.824;4.718;2023-03-23T05:09:17;12.17;;;4.33;;
12707;SDS011;6418;50.824;4.718;2023-03-23T05:11:45;8.33;;;4.00;;
12707;SDS011;6418;50.824;4.718;2023-03-23T05:14:12;9.83;;;3.90;;
12707;SDS011;6418;50.824;4.718;2023-03-23T05:16:40;7.73;;;3.80;;
12707;SDS011;6418;50.824;4.718;2023-03-23T05:19:08;9.37;;;3.87;;
12707;SDS011;6418;50.824;4.718;2023-03-23T05:21:35;8.77;;;3.80;;
12707;SDS011;6418;50.824;4.718;2023-03-23T05:24:02;7.47;;;3.70;;
12707;SDS011;6418;50.824;4.718;2023-03-23T05:26:29;8.53;;;3.60;;
12707;SDS011;6418;50.824;4.718;2023-03-23T05:28:57;9.10;;;4.00;;
12707;SDS011;6418;50.824;4.718;2023-03-23T05:31:24;11.40;;;4.20;;
12707;SDS011;6418;50.824;4.718;2023-03-23T05:33:51;10.90;;;4.40;;
12707;SDS011;6418;50.824;4.718;2023-03-23T05:36:20;9.40;;;4.20;;
12707;SDS011;6418;50.824;4.718;2023-03-23T05:38:47;11.37;;;4.20;;
12707;SDS011;6418;50.824;4.718;2023-03-23T05:41:14;8.67;;;4.20;;
12707;SDS011;6418;50.824;4.718;2023-03-23T05:43:41;13.03;;;4.43;;
12707;SDS011;6418;50.824;4.718;2023-03-23T05:46:08;10.63;;;3.90;;
12707;SDS011;6418;50.824;4.718;2023-03-23T05:48:35;7.87;;;4.07;;
12707;SDS011;6418;50.824;4.718;2023-03-23T05:51:03;10.17;;;4.53;;
12707;SDS011;6418;50.824;4.718;2023-03-23T05:53:31;9.57;;;4.47;;
12707;SDS011;6418;50.824;4.718;2023-03-23T05:56:00;7.57;;;3.73;;
12707;SDS011;6418;50.824;4.718;2023-03-23T05:58:28;8.77;;;4.00;;
12707;SDS011;6418;50.824;4.718;2023-03-23T06:00:56;8.83;;;4.10;;
12707;SDS011;6418;50.824;4.718;2023-03-23T06:03:23;8.20;;;3.87;;
12707;SDS011;6418;50.824;4.718;2023-03-23T06:05:51;8.10;;;3.90;;
12707;SDS011;6418;50.824;4.718;2023-03-23T06:08:18;12.07;;;4.60;;
12707;SDS011;6418;50.824;4.718;2023-03-23T06:10:47;12.87;;;4.37;;
12707;SDS011;6418;50.824;4.718;2023-03-23T06:13:14;10.57;;;4.40;;
12707;SDS011;6418;50.824;4.718;2023-03-23T06:15:41;8.73;;;4.10;;
12707;SDS011;6418;50.824;4.718;2023-03-23T06:18:08;9.90;;;4.10;;
12707;SDS011;6418;50.824;4.718;2023-03-23T06:20:35;11.40;;;4.27;;
12707;SDS011;6418;50.824;4.718;2023-03-23T06:23:02;9.23;;;4.17;;
12707;SDS011;6418;50.824;4.718;2023-03-23T06:25:29;8.40;;;4.03;;
12707;SDS011;6418;50.824;4.718;2023-03-23T06:27:58;11.13;;;4.27;;
12707;SDS011;6418;50.824;4.718;2023-03-23T06:30:25;9.67;;;4.03;;
12707;SDS011;6418;50.824;4.718;2023-03-23T06:32:54;10.47;;;4.27;;
12707;SDS011;6418;50.824;4.718;2023-03-23T06:35:22;10.37;;;4.30;;
12707;SDS011;6418;50.824;4.718;2023-03-23T06:37:49;10.80;;;4.17;;
12707;SDS011;6418;50.824;4.718;2023-03-23T06:40:18;10.03;;;4.20;;
12707;SDS011;6418;50.824;4.718;2023-03-23T06:42:46;8.27;;;4.03;;
12707;SDS011;6418;50.824;4.718;2023-03-23T06:45:15;11.60;;;4.40;;
12707;SDS011;6418;50.824;4.718;2023-03-23T06:47:44;11.57;;;4.30;;
12707;SDS011;6418;50.824;4.718;2023-03-23T06:50:15;10.30;;;3.80;;
12707;SDS011;6418;50.824;4.718;2023-03-23T06:55:54;13.60;;;4.30;;
12707;SDS011;6418;50.824;4.718;2023-03-23T06:58:21;8.77;;;4.10;;
12707;SDS011;6418;50.824;4.718;2023-03-23T07:00:54;9.87;;;4.10;;
12707;SDS011;6418;50.824;4.718;2023-03-23T07:03:23;10.03;;;4.13;;
12707;SDS011;6418;50.824;4.718;2023-03-23T07:05:51;13.50;;;4.43;;
12707;SDS011;6418;50.824;4.718;2023-03-23T07:08:18;13.90;;;4.40;;
12707;SDS011;6418;50.824;4.718;2023-03-23T07:10:45;11.47;;;4.10;;
12707;SDS011;6418;50.824;4.718;2023-03-23T07:13:12;12.43;;;4.20;;
12707;SDS011;6418;50.824;4.718;2023-03-23T07:15:39;9.83;;;4.07;;
12707;SDS011;6418;50.824;4.718;2023-03-23T07:18:07;14.47;;;4.70;;
12707;SDS011;6418;50.824;4.718;2023-03-23T07:20:34;11.53;;;4.30;;
12707;SDS011;6418;50.824;4.718;2023-03-23T07:23:04;12.27;;;4.30;;
12707;SDS011;6418;50.824;4.718;2023-03-23T07:25:31;9.50;;;4.30;;
12707;SDS011;6418;50.824;4.718;2023-03-23T07:27:58;10.20;;;4.20;;
12707;SDS011;6418;50.824;4.718;2023-03-23T07:30:26;10.07;;;4.20;;
12707;SDS011;6418;50.824;4.718;2023-03-23T07:32:54;11.20;;;4.33;;
12707;SDS011;6418;50.824;4.718;2023-03-23T07:35:23;10.83;;;4.10;;
12707;SDS011;6418;50.824;4.718;2023-03-23T07:37:50;11.87;;;4.27;;
12707;SDS011;6418;50.824;4.718;2023-03-23T07:40:18;12.17;;;4.20;;
12707;SDS011;6418;50.824;4.718;2023-03-23T07:42:50;15.07;;;4.50;;
12707;SDS011;6418;50.824;4.718;2023-03-23T07:45:19;11.90;;;4.63;;
12707;SDS011;6418;50.824;4.718;2023-03-23T07:47:46;12.70;;;4.20;;
12707;SDS011;6418;50.824;4.718;2023-03-23T07:50:12;9.17;;;4.00;;
12707;SDS011;6418;50.824;4.718;2023-03-23T07:52:42;11.13;;;4.37;;
12707;SDS011;6418;50.824;4.718;2023-03-23T07:55:11;9.10;;;4.10;;
12707;SDS011;6418;50.824;4.718;2023-03-23T07:57:42;10.80;;;4.27;;
12707;SDS011;6418;50.824;4.718;2023-03-23T08:00:09;8.93;;;4.30;;
12707;SDS011;6418;50.824;4.718;2023-03-23T08:02:41;14.70;;;5.20;;
12707;SDS011;6418;50.824;4.718;2023-03-23T08:05:08;13.30;;;4.93;;
12707;SDS011;6418;50.824;4.718;2023-03-23T08:07:35;13.73;;;5.37;;
12707;SDS011;6418;50.824;4.718;2023-03-23T08:10:16;18.87;;;5.63;;
12707;SDS011;6418;50.824;4.718;2023-03-23T08:12:44;14.37;;;5.50;;
12707;SDS011;6418;50.824;4.718;2023-03-23T08:15:12;13.53;;;5.63;;
12707;SDS011;6418;50.824;4.718;2023-03-23T08:17:40;16.00;;;6.17;;
12707;SDS011;6418;50.824;4.718;2023-03-23T08:20:09;12.83;;;5.60;;
12707;SDS011;6418;50.824;4.718;2023-03-23T08:22:38;10.97;;;5.37;;
12707;SDS011;6418;50.824;4.718;2023-03-23T08:25:09;13.97;;;6.03;;
12707;SDS011;6418;50.824;4.718;2023-03-23T08:27:37;15.70;;;5.93;;
12707;SDS011;6418;50.824;4.718;2023-03-23T08:30:08;14.40;;;5.83;;
12707;SDS011;6418;50.824;4.718;2023-03-23T08:32:37;15.60;;;5.57;;
12707;SDS011;6418;50.824;4.718;2023-03-23T08:35:06;13.13;;;4.77;;
12707;SDS011;6418;50.824;4.718;2023-03-23T08:37:34;10.63;;;4.57;;
12707;SDS011;6418;50.824;4.718;2023-03-23T08:40:01;9.13;;;4.10;;
12707;SDS011;6418;50.824;4.718;2023-03-23T08:42:35;9.30;;;3.87;;
12707;SDS011;6418;50.824;4.718;2023-03-23T08:45:03;10.37;;;3.73;;
12707;SDS011;6418;50.824;4.718;2023-03-23T08:47:32;10.07;;;3.77;;
12707;SDS011;6418;50.824;4.718;2023-03-23T08:50:00;7.07;;;3.20;;
12707;SDS011;6418;50.824;4.718;2023-03-23T08:52:27;8.20;;;3.47;;
12707;SDS011;6418;50.824;4.718;2023-03-23T08:54:54;6.70;;;3.27;;
12707;SDS011;6418;50.824;4.718;2023-03-23T08:57:22;8.83;;;3.90;;
12707;SDS011;6418;50.824;4.718;2023-03-23T08:59:51;6.03;;;3.40;;
12707;SDS011;6418;50.824;4.718;2023-03-23T09:02:19;7.17;;;3.13;;
12707;SDS011;6418;50.824;4.718;2023-03-23T09:04:48;5.97;;;3.50;;
12707;SDS011;6418;50.824;4.718;2023-03-23T09:07:15;9.93;;;5.17;;
12707;SDS011;6418;50.824;4.718;2023-03-23T09:09:42;9.13;;;3.27;;
12707;SDS011;6418;50.824;4.718;2023-03-23T09:12:10;11.00;;;4.67;;
12707;SDS011;6418;50.824;4.718;2023-03-23T09:14:37;10.90;;;3.83;;
12707;SDS011;6418;50.824;4.718;2023-03-23T09:17:06;6.80;;;3.70;;
12707;SDS011;6418;50.824;4.718;2023-03-23T09:19:33;9.10;;;3.80;;
12707;SDS011;6418;50.824;4.718;2023-03-23T09:22:01;9.93;;;4.33;;
12707;SDS011;6418;50.824;4.718;2023-03-23T09:24:28;11.50;;;3.97;;
12707;SDS011;6418;50.824;4.718;2023-03-23T09:26:56;7.87;;;4.20;;
12707;SDS011;6418;50.824;4.718;2023-03-23T09:29:24;10.83;;;3.73;;
12707;SDS011;6418;50.824;4.718;2023-03-23T09:31:52;8.70;;;4.10;;
12707;SDS011;6418;50.824;4.718;2023-03-23T09:34:20;10.17;;;3.80;;
12707;SDS011;6418;50.824;4.718;2023-03-23T09:36:48;11.07;;;4.20;;
12707;SDS011;6418;50.824;4.718;2023-03-23T09:39:15;11.97;;;7.07;;
12707;SDS011;6418;50.824;4.718;2023-03-23T09:41:55;14.30;;;4.10;;
12707;SDS011;6418;50.824;4.718;2023-03-23T09:44:36;7.80;;;4.00;;
12707;SDS011;6418;50.824;4.718;2023-03-23T09:47:13;9.77;;;3.93;;
12707;SDS011;6418;50.824;4.718;2023-03-23T09:49:48;9.00;;;4.13;;
12707;SDS011;6418;50.824;4.718;2023-03-23T09:52:20;7.77;;;3.97;;
12707;SDS011;6418;50.824;4.718;2023-03-23T09:54:48;9.67;;;4.67;;
12707;SDS011;6418;50.824;4.718;2023-03-23T09:57:20;10.63;;;4.40;;
12707;SDS011;6418;50.824;4.718;2023-03-23T09:59:54;9.20;;;4.17;;
12707;SDS011;6418;50.824;4.718;2023-03-23T10:02:26;9.07;;;4.23;;
12707;SDS011;6418;50.824;4.718;2023-03-23T10:04:58;9.93;;;4.33;;
12707;SDS011;6418;50.824;4.718;2023-03-23T10:07:38;8.57;;;4.00;;
12707;SDS011;6418;50.824;4.718;2023-03-23T10:10:05;8.10;;;4.23;;
12707;SDS011;6418;50.824;4.718;2023-03-23T10:12:39;9.43;;;4.30;;
12707;SDS011;6418;50.824;4.718;2023-03-23T10:15:13;11.40;;;4.60;;
12707;SDS011;6418;50.824;4.718;2023-03-23T10:17:45;9.47;;;4.50;;
12707;SDS011;6418;50.824;4.718;2023-03-23T10:20:23;11.00;;;4.80;;
12707;SDS011;6418;50.824;4.718;2023-03-23T10:22:58;11.23;;;5.17;;
12707;SDS011;6418;50.824;4.718;2023-03-23T10:25:31;9.87;;;5.43;;
12707;SDS011;6418;50.824;4.718;2023-03-23T10:28:04;9.73;;;5.37;;
12707;SDS011;6418;50.824;4.718;2023-03-23T10:30:37;10.90;;;5.50;;
12707;SDS011;6418;50.824;4.718;2023-03-23T10:33:08;11.17;;;6.00;;
12707;SDS011;6418;50.824;4.718;2023-03-23T10:35:43;13.20;;;5.90;;
12707;SDS011;6418;50.824;4.718;2023-03-23T10:38:15;13.13;;;6.10;;
12707;SDS011;6418;50.824;4.718;2023-03-23T10:40:49;11.73;;;5.90;;
12707;SDS011;6418;50.824;4.718;2023-03-23T10:43:20;10.50;;;5.73;;
12707;SDS011;6418;50.824;4.718;2023-03-23T10:45:48;11.03;;;5.80;;
12707;SDS011;6418;50.824;4.718;2023-03-23T10:48:21;12.17;;;5.73;;
12707;SDS011;6418;50.824;4.718;2023-03-23T10:50:54;12.73;;;5.83;;
12707;SDS011;6418;50.824;4.718;2023-03-23T10:53:23;11.43;;;5.53;;
12707;SDS011;6418;50.824;4.718;2023-03-23T10:55:57;12.33;;;5.50;;
12707;SDS011;6418;50.824;4.718;2023-03-23T10:58:25;12.07;;;5.43;;
12707;SDS011;6418;50.824;4.718;2023-03-23T11:00:55;9.93;;;5.33;;
12707;SDS011;6418;50.824;4.718;2023-03-23T11:03:24;12.83;;;6.13;;
12707;SDS011;6418;50.824;4.718;2023-03-23T11:05:59;13.90;;;6.20;;
12707;SDS011;6418;50.824;4.718;2023-03-23T11:08:28;12.97;;;5.70;;
12707;SDS011;6418;50.824;4.718;2023-03-23T11:10:58;9.17;;;5.20;;
12707;SDS011;6418;50.824;4.718;2023-03-23T11:13:42;15.00;;;5.23;;
12707;SDS011;6418;50.824;4.718;2023-03-23T11:16:21;13.50;;;5.23;;
12707;SDS011;6418;50.824;4.718;2023-03-23T11:18:48;12.37;;;5.07;;
12707;SDS011;6418;50.824;4.718;2023-03-23T11:21:19;11.33;;;5.33;;
12707;SDS011;6418;50.824;4.718;2023-03-23T11:23:49;11.07;;;5.00;;
12707;SDS011;6418;50.824;4.718;2023-03-23T11:26:18;12.93;;;5.10;;
12707;SDS011;6418;50.824;4.718;2023-03-23T11:28:48;12.57;;;5.17;;
12707;SDS011;6418;50.824;4.718;2023-03-23T11:31:21;12.93;;;5.23;;
12707;SDS011;6418;50.824;4.718;2023-03-23T11:33:52;13.40;;;4.90;;
12707;SDS011;6418;50.824;4.718;2023-03-23T11:36:28;11.83;;;4.90;;
12707;SDS011;6418;50.824;4.718;2023-03-23T11:38:59;12.40;;;4.57;;
12707;SDS011;6418;50.824;4.718;2023-03-23T11:41:32;11.70;;;4.70;;
12707;SDS011;6418;50.824;4.718;2023-03-23T11:44:10;11.63;;;5.03;;
12707;SDS011;6418;50.824;4.718;2023-03-23T11:46:40;13.00;;;5.00;;
12707;SDS011;6418;50.824;4.718;2023-03-23T11:49:17;11.87;;;4.70;;
12707;SDS011;6418;50.824;4.718;2023-03-23T11:51:50;13.43;;;4.93;;
12707;SDS011;6418;50.824;4.718;2023-03-23T11:54:21;13.07;;;4.53;;
12707;SDS011;6418;50.824;4.718;2023-03-23T11:56:53;16.50;;;5.03;;
12707;SDS011;6418;50.824;4.718;2023-03-23T11:59:26;11.47;;;4.40;;
12707;SDS011;6418;50.824;4.718;2023-03-23T12:01:56;12.90;;;4.60;;
12707;SDS011;6418;50.824;4.718;2023-03-23T12:04:40;10.20;;;4.60;;
12707;SDS011;6418;50.824;4.718;2023-03-23T12:07:35;12.50;;;4.50;;
12707;SDS011;6418;50.824;4.718;2023-03-23T12:10:24;10.90;;;4.40;;
12707;SDS011;6418;50.824;4.718;2023-03-23T12:12:59;11.43;;;4.30;;
12707;SDS011;6418;50.824;4.718;2023-03-23T12:15:38;12.37;;;4.50;;
12707;SDS011;6418;50.824;4.718;2023-03-23T12:18:18;12.63;;;4.50;;
12707;SDS011;6418;50.824;4.718;2023-03-23T12:20:57;12.10;;;4.03;;
12707;SDS011;6418;50.824;4.718;2023-03-23T12:23:33;11.77;;;4.10;;
12707;SDS011;6418;50.824;4.718;2023-03-23T12:26:22;12.07;;;4.10;;
12707;SDS011;6418;50.824;4.718;2023-03-23T12:31:45;11.30;;;4.30;;
12707;SDS011;6418;50.824;4.718;2023-03-23T12:34:23;13.20;;;4.13;;
12707;SDS011;6418;50.824;4.718;2023-03-23T12:37:01;10.97;;;4.10;;
12707;SDS011;6418;50.824;4.718;2023-03-23T12:42:56;12.07;;;4.93;;
12707;SDS011;6418;50.824;4.718;2023-03-23T12:45:40;12.70;;;5.00;;
12707;SDS011;6418;50.824;4.718;2023-03-23T12:48:22;15.37;;;5.33;;
12707;SDS011;6418;50.824;4.718;2023-03-23T12:51:02;13.23;;;5.27;;
12707;SDS011;6418;50.824;4.718;2023-03-23T12:53:37;14.83;;;5.30;;
12707;SDS011;6418;50.824;4.718;2023-03-23T12:56:11;16.37;;;5.20;;
12707;SDS011;6418;50.824;4.718;2023-03-23T12:58:45;17.57;;;5.20;;
12707;SDS011;6418;50.824;4.718;2023-03-23T13:01:14;13.00;;;4.77;;
12707;SDS011;6418;50.824;4.718;2023-03-23T13:03:48;14.87;;;5.23;;
12707;SDS011;6418;50.824;4.718;2023-03-23T13:06:20;17.10;;;5.50;;
12707;SDS011;6418;50.824;4.718;2023-03-23T13:08:53;16.37;;;6.73;;
12707;SDS011;6418;50.824;4.718;2023-03-23T13:11:25;15.80;;;6.70;;
12707;SDS011;6418;50.824;4.718;2023-03-23T13:14:01;20.13;;;10.00;;
12707;SDS011;6418;50.824;4.718;2023-03-23T13:16:38;19.20;;;8.30;;
12707;SDS011;6418;50.824;4.718;2023-03-23T13:19:13;15.47;;;6.40;;
12707;SDS011;6418;50.824;4.718;2023-03-23T13:21:52;14.80;;;5.40;;
12707;SDS011;6418;50.824;4.718;2023-03-23T13:24:24;14.67;;;5.27;;
12707;SDS011;6418;50.824;4.718;2023-03-23T13:26:55;14.60;;;5.37;;
12707;SDS011;6418;50.824;4.718;2023-03-23T13:29:24;12.90;;;5.20;;
12707;SDS011;6418;50.824;4.718;2023-03-23T13:31:52;11.10;;;4.73;;
12707;SDS011;6418;50.824;4.718;2023-03-23T13:34:31;13.57;;;5.07;;
12707;SDS011;6418;50.824;4.718;2023-03-23T13:36:59;11.87;;;5.20;;
12707;SDS011;6418;50.824;4.718;2023-03-23T13:39:29;13.37;;;5.57;;
12707;SDS011;6418;50.824;4.718;2023-03-23T13:42:00;13.47;;;5.10;;
12707;SDS011;6418;50.824;4.718;2023-03-23T13:44:43;14.33;;;5.27;;
12707;SDS011;6418;50.824;4.718;2023-03-23T13:47:25;13.20;;;4.80;;
12707;SDS011;6418;50.824;4.718;2023-03-23T13:49:56;10.67;;;4.67;;
12707;SDS011;6418;50.824;4.718;2023-03-23T13:52:36;14.53;;;5.30;;
12707;SDS011;6418;50.824;4.718;2023-03-23T13:55:12;15.23;;;5.20;;
12707;SDS011;6418;50.824;4.718;2023-03-23T13:57:50;15.20;;;5.00;;
12707;SDS011;6418;50.824;4.718;2023-03-23T14:00:35;11.77;;;4.97;;
12707;SDS011;6418;50.824;4.718;2023-03-23T14:03:12;14.63;;;4.70;;
12707;SDS011;6418;50.824;4.718;2023-03-23T14:05:42;13.67;;;4.70;;
12707;SDS011;6418;50.824;4.718;2023-03-23T14:08:14;13.23;;;4.67;;
12707;SDS011;6418;50.824;4.718;2023-03-23T14:10:50;13.33;;;4.50;;
12707;SDS011;6418;50.824;4.718;2023-03-23T14:13:23;10.10;;;4.20;;
12707;SDS011;6418;50.824;4.718;2023-03-23T14:15:57;10.30;;;4.30;;
12707;SDS011;6418;50.824;4.718;2023-03-23T14:18:28;16.13;;;5.87;;
12707;SDS011;6418;50.824;4.718;2023-03-23T14:20:58;14.33;;;4.97;;
12707;SDS011;6418;50.824;4.718;2023-03-23T14:23:27;14.37;;;5.43;;
12707;SDS011;6418;50.824;4.718;2023-03-23T14:25:59;15.30;;;5.97;;
12707;SDS011;6418;50.824;4.718;2023-03-23T14:28:36;14.13;;;5.03;;
12707;SDS011;6418;50.824;4.718;2023-03-23T14:31:08;13.23;;;4.70;;
12707;SDS011;6418;50.824;4.718;2023-03-23T14:33:41;18.47;;;5.10;;
12707;SDS011;6418;50.824;4.718;2023-03-23T14:36:08;14.27;;;5.03;;
12707;SDS011;6418;50.824;4.718;2023-03-23T14:38:35;11.83;;;4.87;;
12707;SDS011;6418;50.824;4.718;2023-03-23T14:41:04;13.10;;;4.73;;
12707;SDS011;6418;50.824;4.718;2023-03-23T14:43:33;15.40;;;5.30;;
12707;SDS011;6418;50.824;4.718;2023-03-23T14:46:02;13.60;;;4.83;;
12707;SDS011;6418;50.824;4.718;2023-03-23T14:48:33;17.63;;;5.53;;
12707;SDS011;6418;50.824;4.718;2023-03-23T14:51:02;15.43;;;5.50;;
12707;SDS011;6418;50.824;4.718;2023-03-23T14:53:32;14.93;;;5.60;;
12707;SDS011;6418;50.824;4.718;2023-03-23T14:56:02;15.60;;;5.37;;
12707;SDS011;6418;50.824;4.718;2023-03-23T14:58:32;15.43;;;5.40;;
12707;SDS011;6418;50.824;4.718;2023-03-23T15:01:00;14.03;;;5.23;;
12707;SDS011;6418;50.824;4.718;2023-03-23T15:03:33;12.97;;;4.60;;
12707;SDS011;6418;50.824;4.718;2023-03-23T15:06:03;16.33;;;5.20;;
12707;SDS011;6418;50.824;4.718;2023-03-23T15:08:33;15.53;;;4.60;;
12707;SDS011;6418;50.824;4.718;2023-03-23T15:11:03;11.23;;;4.40;;
12707;SDS011;6418;50.824;4.718;2023-03-23T15:13:34;12.50;;;4.40;;
12707;SDS011;6418;50.824;4.718;2023-03-23T15:16:03;10.27;;;4.30;;
12707;SDS011;6418;50.824;4.718;2023-03-23T15:18:35;16.33;;;4.57;;
12707;SDS011;6418;50.824;4.718;2023-03-23T15:21:10;15.43;;;4.27;;
12707;SDS011;6418;50.824;4.718;2023-03-23T15:23:45;15.90;;;4.77;;
12707;SDS011;6418;50.824;4.718;2023-03-23T15:26:18;14.47;;;4.83;;